createdAt,value
2023-04-15T00:01:38.018Z,97125.97
2023-04-15T00:04:05.419Z,97131.53
2023-04-15T00:06:33.049Z,97129.69
2023-04-15T00:09:00.931Z,97122.72
2023-04-15T00:11:28.970Z,97131.31
2023-04-15T00:13:56.221Z,97133.41
2023-04-15T00:16:23.862Z,97138.72
2023-04-15T00:18:51.738Z,97138.72
2023-04-15T00:21:19.238Z,97133.41
2023-04-15T00:23:49.764Z,97138.72
2023-04-15T00:26:17.241Z,97149.41
2023-04-15T00:28:44.656Z,97144.06
2023-04-15T00:31:12.431Z,97147.53
2023-04-15T00:33:40.158Z,97147.78
2023-04-15T00:36:08.659Z,97153.13
2023-04-15T00:38:38.242Z,97165.41
2023-04-15T00:41:05.824Z,97169.94
2023-04-15T00:43:33.279Z,97163.78
2023-04-15T00:46:02.347Z,97169.13
2023-04-15T00:48:30.211Z,97174.47
2023-04-15T00:50:57.997Z,97163.78
2023-04-15T00:53:25.224Z,97171.22
2023-04-15T00:55:54.237Z,97180.59
2023-04-15T00:58:21.780Z,97174.47
2023-04-15T01:00:49.510Z,97174.47
2023-04-15T01:03:16.973Z,97171.00
2023-04-15T01:05:44.719Z,97178.16
2023-04-15T01:08:12.576Z,97177.13
2023-04-15T01:10:40.349Z,97184.31
2023-04-15T01:13:07.855Z,97177.34
2023-04-15T01:15:38.655Z,97178.16
2023-04-15T01:18:07.461Z,97183.50
2023-04-15T01:20:36.349Z,97188.81
2023-04-15T01:23:03.755Z,97179.22
2023-04-15T01:25:35.305Z,97178.16
2023-04-15T01:28:03.297Z,97171.22
2023-04-15T01:30:34.801Z,97173.88
2023-04-15T01:33:02.778Z,97181.88
2023-04-15T01:35:30.470Z,97175.75
2023-04-15T01:38:04.261Z,97180.25
2023-04-15T01:40:32.222Z,97180.25
2023-04-15T01:42:59.853Z,97181.31
2023-04-15T01:45:27.329Z,97186.63
2023-04-15T01:47:55.886Z,97184.78
2023-04-15T01:50:23.437Z,97181.31
2023-04-15T01:52:51.039Z,97188.25
2023-04-15T01:55:18.606Z,97183.19
2023-04-15T01:57:46.480Z,97189.31
2023-04-15T02:00:14.121Z,97190.34
2023-04-15T02:02:41.592Z,97198.34
2023-04-15T02:05:09.564Z,97205.31
2023-04-15T02:07:37.940Z,97205.31
2023-04-15T02:10:05.865Z,97216.78
2023-04-15T02:12:33.355Z,97217.84
2023-04-15T02:15:00.841Z,97218.88
2023-04-15T02:17:28.241Z,97219.66
2023-04-15T02:19:59.292Z,97219.66
2023-04-15T02:22:26.754Z,97218.06
2023-04-15T02:24:54.328Z,97218.06
2023-04-15T02:27:22.488Z,97214.34
2023-04-15T02:29:51.245Z,97212.72
2023-04-15T02:32:18.847Z,97211.94
2023-04-15T02:34:46.500Z,97210.06
2023-04-15T02:37:14.600Z,97220.16
2023-04-15T02:39:42.143Z,97227.09
2023-04-15T02:42:09.365Z,97229.75
2023-04-15T02:44:36.884Z,97232.44
2023-04-15T02:47:06.502Z,97230.03
2023-04-15T02:49:34.134Z,97232.44
2023-04-15T02:52:01.606Z,97236.97
2023-04-15T02:54:29.912Z,97233.50
2023-04-15T02:56:57.172Z,97239.88
2023-04-15T02:59:24.728Z,97245.22
2023-04-15T03:01:52.175Z,97244.38
2023-04-15T03:04:20.892Z,97256.69
2023-04-15T03:06:48.195Z,97255.88
2023-04-15T03:09:15.666Z,97261.22
2023-04-15T03:11:43.001Z,97258.56
2023-04-15T03:14:10.505Z,97257.72
2023-04-15T03:16:37.766Z,97263.31
2023-04-15T03:19:05.282Z,97260.63
2023-04-15T03:21:32.470Z,97259.56
2023-04-15T03:23:59.973Z,97264.91
2023-04-15T03:26:29.226Z,97256.34
2023-04-15T03:28:57.434Z,97268.63
2023-04-15T03:31:25.152Z,97275.81
2023-04-15T03:33:52.732Z,97276.84
2023-04-15T03:36:19.976Z,97277.66
2023-04-15T03:38:47.500Z,97276.06
2023-04-15T03:41:14.937Z,97276.84
2023-04-15T03:43:43.139Z,97277.66
2023-04-15T03:46:10.353Z,97291.22
2023-04-15T03:48:37.813Z,97297.38
2023-04-15T03:51:05.892Z,97296.56
2023-04-15T03:53:33.384Z,97296.56
2023-04-15T03:56:00.784Z,97309.88
2023-04-15T03:58:28.326Z,97303.75
2023-04-15T04:00:55.595Z,97306.41
2023-04-15T04:03:23.324Z,97303.97
2023-04-15T04:05:51.430Z,97304.81
2023-04-15T04:08:19.671Z,97310.13
2023-04-15T04:10:47.021Z,97310.94
2023-04-15T04:13:14.568Z,97304.81
2023-04-15T04:15:42.097Z,97313.84
2023-04-15T04:18:09.643Z,97319.16
2023-04-15T04:20:36.995Z,97326.13
2023-04-15T04:23:04.528Z,97332.28
2023-04-15T04:25:32.179Z,97324.50
2023-04-15T04:28:00.275Z,97324.50
2023-04-15T04:30:27.497Z,97340.50
2023-04-15T04:32:55.056Z,97345.81
2023-04-15T04:35:22.729Z,97345.81
2023-04-15T04:37:50.862Z,97353.81
2023-04-15T04:40:18.156Z,97356.50
2023-04-15T04:42:46.021Z,97356.50
2023-04-15T04:45:13.495Z,97346.88
2023-04-15T04:47:41.113Z,97344.22
2023-04-15T04:50:09.134Z,97341.56
2023-04-15T04:52:36.830Z,97341.56
2023-04-15T04:55:04.481Z,97349.56
2023-04-15T04:57:32.045Z,97351.16
2023-04-15T04:59:59.364Z,97356.50
2023-04-15T05:02:27.502Z,97348.75
2023-04-15T05:04:55.236Z,97351.16
2023-04-15T05:07:22.789Z,97354.88
2023-04-15T05:09:51.063Z,97351.97
2023-04-15T05:12:18.613Z,97345.03
2023-04-15T05:14:46.756Z,97342.13
2023-04-15T05:17:14.325Z,97338.88
2023-04-15T05:19:41.498Z,97347.47
2023-04-15T05:22:08.996Z,97345.81
2023-04-15T05:24:36.471Z,97356.50
2023-04-15T05:27:04.187Z,97352.81
2023-04-15T05:29:31.445Z,97365.06
2023-04-15T05:31:58.960Z,97358.13
2023-04-15T05:34:26.417Z,97367.16
2023-04-15T05:36:53.885Z,97353.25
2023-04-15T05:39:21.378Z,97364.38
2023-04-15T05:41:49.178Z,97360.56
2023-04-15T05:44:16.554Z,97369.81
2023-04-15T05:46:44.188Z,97377.47
2023-04-15T05:49:12.075Z,97382.22
2023-04-15T05:51:39.568Z,97382.69
2023-04-15T05:54:06.863Z,97391.69
2023-04-15T05:56:34.700Z,97387.66
2023-04-15T05:59:02.359Z,97386.03
2023-04-15T06:01:30.506Z,97384.63
2023-04-15T06:03:57.964Z,97396.53
2023-04-15T06:06:27.188Z,97398.41
2023-04-15T06:08:55.908Z,97395.75
2023-04-15T06:11:23.399Z,97394.72
2023-04-15T06:13:50.790Z,97389.38
2023-04-15T06:16:18.324Z,97397.97
2023-04-15T06:18:45.731Z,97406.53
2023-04-15T06:21:13.319Z,97407.34
2023-04-15T06:23:41.357Z,97404.44
2023-04-15T06:26:08.865Z,97403.41
2023-04-15T06:28:36.136Z,97404.00
2023-04-15T06:31:03.711Z,97403.53
2023-04-15T06:33:31.886Z,97410.50
2023-04-15T06:35:59.402Z,97411.09
2023-04-15T06:38:26.633Z,97404.69
2023-04-15T06:40:54.188Z,97413.28
2023-04-15T06:43:21.431Z,97413.28
2023-04-15T06:45:48.949Z,97407.94
2023-04-15T06:48:16.316Z,97420.25
2023-04-15T06:50:43.909Z,97414.94
2023-04-15T06:53:12.361Z,97425.59
2023-04-15T06:55:40.492Z,97426.16
2023-04-15T06:58:07.772Z,97429.41
2023-04-15T07:00:35.600Z,97438.22
2023-04-15T07:03:03.745Z,97432.06
2023-04-15T07:05:32.451Z,97439.47
2023-04-15T07:08:00.367Z,97437.88
2023-04-15T07:10:27.904Z,97432.53
2023-04-15T07:12:55.280Z,97441.59
2023-04-15T07:15:23.529Z,97439.94
2023-04-15T07:17:51.411Z,97450.59
2023-04-15T07:20:19.150Z,97450.59
2023-04-15T07:22:46.467Z,97449.59
2023-04-15T07:25:14.010Z,97446.91
2023-04-15T07:27:41.655Z,97451.41
2023-04-15T07:30:09.784Z,97449.03
2023-04-15T07:32:37.057Z,97456.84
2023-04-15T07:35:05.024Z,97455.16
2023-04-15T07:37:32.303Z,97464.31
2023-04-15T07:39:59.820Z,97450.59
2023-04-15T07:42:27.565Z,97452.25
2023-04-15T07:44:55.064Z,97452.25
2023-04-15T07:47:22.373Z,97447.06
2023-04-15T07:49:51.503Z,97446.75
2023-04-15T07:52:18.992Z,97438.25
2023-04-15T07:54:46.878Z,97442.75
2023-04-15T07:57:14.094Z,97443.22
2023-04-15T07:59:41.773Z,97438.16
2023-04-15T08:02:10.864Z,97439.81
2023-04-15T08:04:39.478Z,97438.97
2023-04-15T08:07:07.094Z,97434.19
2023-04-15T08:09:34.617Z,97440.41
2023-04-15T08:12:02.110Z,97440.19
2023-04-15T08:14:29.749Z,97444.09
2023-04-15T08:16:57.157Z,97437.59
2023-04-15T08:19:24.698Z,97440.84
2023-04-15T08:21:52.025Z,97443.88
2023-04-15T08:24:19.700Z,97441.28
2023-04-15T08:26:47.190Z,97437.00
2023-04-15T08:29:14.865Z,97439.28
2023-04-15T08:31:42.356Z,97437.69
2023-04-15T08:34:12.446Z,97441.50
2023-04-15T08:36:43.019Z,97441.00
2023-04-15T08:39:11.321Z,97448.75
2023-04-15T08:41:50.043Z,97452.16
2023-04-15T08:44:18.163Z,97448.38
2023-04-15T08:46:45.727Z,97454.88
2023-04-15T08:49:13.869Z,97449.13
2023-04-15T08:51:41.851Z,97451.19
2023-04-15T08:54:10.617Z,97446.88
2023-04-15T08:56:39.024Z,97454.28
2023-04-15T08:59:07.517Z,97450.59
2023-04-15T09:01:35.372Z,97455.94
2023-04-15T09:04:06.545Z,97460.59
2023-04-15T09:06:34.623Z,97452.81
2023-04-15T09:09:02.376Z,97453.41
2023-04-15T09:11:31.441Z,97454.88
2023-04-15T09:13:59.072Z,97454.66
2023-04-15T09:16:26.429Z,97456.06
2023-04-15T09:18:54.382Z,97451.91
2023-04-15T09:21:23.525Z,97449.47
2023-04-15T09:23:57.589Z,97453.41
2023-04-15T09:26:40.105Z,97455.03
2023-04-15T09:29:14.470Z,97454.00
2023-04-15T09:31:42.765Z,97449.72
2023-04-15T09:34:10.568Z,97449.47
2023-04-15T09:36:57.450Z,97456.44
2023-04-15T09:39:25.013Z,97450.66
2023-04-15T09:42:06.927Z,97450.91
2023-04-15T09:44:34.641Z,97451.13
2023-04-15T09:47:02.314Z,97447.78
2023-04-15T09:49:29.980Z,97455.31
2023-04-15T09:52:05.660Z,97442.41
2023-04-15T09:54:38.282Z,97449.72
2023-04-15T09:57:10.320Z,97442.91
2023-04-15T09:59:38.101Z,97450.91
2023-04-15T10:02:07.106Z,97445.56
2023-04-15T10:04:39.865Z,97445.56
2023-04-15T10:07:09.500Z,97445.09
2023-04-15T10:09:39.185Z,97442.69
2023-04-15T10:12:07.234Z,97442.69
2023-04-15T10:14:38.734Z,97457.41
2023-04-15T10:17:08.908Z,97450.69
2023-04-15T10:19:38.245Z,97447.19
2023-04-15T10:22:06.600Z,97433.84
2023-04-15T10:24:34.540Z,97447.19
2023-04-15T10:27:04.510Z,97449.41
2023-04-15T10:29:32.041Z,97450.81
2023-04-15T10:31:59.932Z,97447.94
2023-04-15T10:34:28.279Z,97445.25
2023-04-15T10:36:57.416Z,97443.03
2023-04-15T10:39:34.366Z,97454.75
2023-04-15T10:42:10.311Z,97452.28
2023-04-15T10:44:53.784Z,97447.19
2023-04-15T10:47:22.420Z,97450.44
2023-04-15T10:50:02.410Z,97449.28
2023-04-15T10:52:29.878Z,97441.84
2023-04-15T10:55:17.902Z,97444.31
2023-04-15T10:57:45.506Z,97451.03
2023-04-15T11:00:14.232Z,97452.06
2023-04-15T11:02:48.113Z,97462.72
2023-04-15T11:05:17.318Z,97455.75
2023-04-15T11:07:44.784Z,97452.88
2023-04-15T11:10:18.054Z,97451.63
2023-04-15T11:12:46.010Z,97453.25
2023-04-15T11:15:33.426Z,97447.94
2023-04-15T11:18:25.130Z,97447.34
2023-04-15T11:21:02.077Z,97451.63
2023-04-15T11:23:31.325Z,97459.75
2023-04-15T11:26:00.341Z,97455.25
2023-04-15T11:28:30.358Z,97450.34
2023-04-15T11:30:58.784Z,97450.00
2023-04-15T11:33:27.032Z,97453.69
2023-04-15T11:35:55.215Z,97451.47
2023-04-15T11:38:22.803Z,97455.34
2023-04-15T11:40:51.401Z,97456.94
2023-04-15T11:43:23.460Z,97451.63
2023-04-15T11:45:55.493Z,97457.41
2023-04-15T11:48:28.347Z,97461.09
2023-04-15T11:51:07.035Z,97462.72
2023-04-15T11:53:52.566Z,97463.75
2023-04-15T11:56:23.087Z,97460.28
2023-04-15T11:58:59.965Z,97461.56
2023-04-15T12:01:54.324Z,97464.00
2023-04-15T12:04:25.464Z,97462.94
2023-04-15T12:06:53.875Z,97461.34
2023-04-15T12:09:21.605Z,97457.84
2023-04-15T12:11:51.191Z,97464.00
2023-04-15T12:14:24.327Z,97464.22
2023-04-15T12:16:54.409Z,97476.47
2023-04-15T12:19:28.646Z,97464.81
2023-04-15T12:22:02.268Z,97473.38
2023-04-15T12:24:35.901Z,97468.44
2023-04-15T12:27:08.514Z,97481.06
2023-04-15T12:29:38.690Z,97476.94
2023-04-15T12:32:12.519Z,97476.47
2023-04-15T12:34:45.118Z,97471.13
2023-04-15T12:37:14.304Z,97468.94
2023-04-15T12:39:44.578Z,97470.41
2023-04-15T12:42:12.942Z,97472.41
2023-04-15T12:44:40.789Z,97477.06
2023-04-15T12:47:09.776Z,97471.72
2023-04-15T12:49:37.713Z,97475.56
2023-04-15T12:52:05.609Z,97463.28
2023-04-15T12:54:34.365Z,97466.53
2023-04-15T12:57:05.473Z,97465.94
2023-04-15T12:59:35.575Z,97468.38
2023-04-15T13:02:04.030Z,97462.00
2023-04-15T13:04:32.000Z,97464.22
2023-04-15T13:06:59.691Z,97461.78
2023-04-15T13:09:27.119Z,97462.84
2023-04-15T13:11:54.989Z,97466.31
2023-04-15T13:14:22.351Z,97468.75
2023-04-15T13:16:50.515Z,97468.75
2023-04-15T13:19:17.756Z,97464.66
2023-04-15T13:21:45.396Z,97466.09
2023-04-15T13:24:12.675Z,97470.94
2023-04-15T13:26:40.228Z,97472.59
2023-04-15T13:29:08.529Z,97463.53
2023-04-15T13:31:36.805Z,97470.50
2023-04-15T13:34:04.241Z,97470.50
2023-04-15T13:36:31.962Z,97472.59
2023-04-15T13:39:00.042Z,97470.50
2023-04-15T13:41:27.634Z,97471.53
2023-04-15T13:43:54.905Z,97474.22
2023-04-15T13:46:23.021Z,97476.88
2023-04-15T13:48:50.369Z,97482.06
2023-04-15T13:51:17.833Z,97479.50
2023-04-15T13:53:45.008Z,97483.88
2023-04-15T13:56:12.927Z,97490.25
2023-04-15T13:58:40.851Z,97485.34
2023-04-15T14:01:08.452Z,97490.56
2023-04-15T14:03:36.847Z,97495.88
2023-04-15T14:06:05.906Z,97492.63
2023-04-15T14:08:33.354Z,97490.97
2023-04-15T14:11:01.359Z,97492.63
2023-04-15T14:13:28.797Z,97489.97
2023-04-15T14:16:04.122Z,97491.16
2023-04-15T14:18:31.416Z,97486.84
2023-04-15T14:20:59.967Z,97497.06
2023-04-15T14:23:27.599Z,97497.88
2023-04-15T14:25:55.367Z,97492.31
2023-04-15T14:28:22.600Z,97497.88
2023-04-15T14:30:50.307Z,97504.00
2023-04-15T14:33:17.556Z,97504.00
2023-04-15T14:35:45.789Z,97506.66
2023-04-15T14:38:13.019Z,97502.75
2023-04-15T14:40:41.567Z,97506.38
2023-04-15T14:43:08.974Z,97508.81
2023-04-15T14:45:39.545Z,97510.06
2023-04-15T14:48:10.138Z,97515.72
2023-04-15T14:50:37.870Z,97512.22
2023-04-15T14:53:05.688Z,97516.31
2023-04-15T14:55:33.475Z,97518.38
2023-04-15T14:58:02.319Z,97512.22
2023-04-15T15:00:30.384Z,97513.84
2023-04-15T15:02:58.698Z,97523.72
2023-04-15T15:05:26.660Z,97525.91
2023-04-15T15:07:53.967Z,97524.72
2023-04-15T15:10:32.643Z,97531.69
2023-04-15T15:13:10.353Z,97520.00
2023-04-15T15:15:38.763Z,97525.31
2023-04-15T15:18:06.685Z,97531.47
2023-04-15T15:20:35.432Z,97538.44
2023-04-15T15:23:03.768Z,97535.16
2023-04-15T15:25:31.598Z,97535.38
2023-04-15T15:27:58.883Z,97544.66
2023-04-15T15:30:26.404Z,97541.19
2023-04-15T15:32:53.836Z,97539.53
2023-04-15T15:35:22.938Z,97545.91
2023-04-15T15:37:50.230Z,97544.28
2023-04-15T15:40:17.814Z,97536.13
2023-04-15T15:42:47.222Z,97541.69
2023-04-15T15:45:14.740Z,97543.53
2023-04-15T15:47:42.804Z,97542.53
2023-04-15T15:50:10.495Z,97551.31
2023-04-15T15:52:37.858Z,97546.78
2023-04-15T15:55:06.337Z,97553.72
2023-04-15T15:57:34.075Z,97550.50
2023-04-15T16:00:11.138Z,97549.47
2023-04-15T16:05:09.581Z,97557.44
2023-04-15T16:07:36.794Z,97559.06
2023-04-15T16:10:04.760Z,97556.41
2023-04-15T16:12:33.839Z,97554.78
2023-04-15T16:15:02.922Z,97552.34
2023-04-15T16:17:30.199Z,97560.31
2023-04-15T16:20:01.186Z,97553.38
2023-04-15T16:22:29.581Z,97556.25
2023-04-15T16:24:57.074Z,97543.16
2023-04-15T16:27:24.416Z,97559.97
2023-04-15T16:29:52.155Z,97558.34
2023-04-15T16:32:19.752Z,97558.53
2023-04-15T16:34:47.543Z,97561.81
2023-04-15T16:37:14.936Z,97575.13
2023-04-15T16:39:43.605Z,97571.06
2023-04-15T16:42:11.110Z,97578.44
2023-04-15T16:44:38.997Z,97567.78
2023-04-15T16:47:06.495Z,97574.19
2023-04-15T16:49:35.503Z,97584.81
2023-04-15T16:52:02.779Z,97585.81
2023-04-15T16:54:30.416Z,97590.34
2023-04-15T16:56:58.562Z,97591.16
2023-04-15T16:59:26.401Z,97602.25
2023-04-15T17:01:55.375Z,97613.72
2023-04-15T17:04:23.429Z,97624.38
2023-04-15T17:06:51.219Z,97628.41
2023-04-15T17:09:19.346Z,97642.69
2023-04-15T17:11:46.555Z,97650.03
2023-04-15T17:14:14.211Z,97675.00
2023-04-15T17:16:43.107Z,97679.06
2023-04-15T17:19:11.408Z,97687.06
2023-04-15T17:21:38.755Z,97688.47
2023-04-15T17:24:06.607Z,97691.72
2023-04-15T17:26:34.023Z,97685.34
2023-04-15T17:29:01.510Z,97686.78
2023-04-15T17:31:30.356Z,97691.84
2023-04-15T17:34:06.658Z,97687.59
2023-04-15T17:36:35.412Z,97696.16
2023-04-15T17:39:03.683Z,97707.63
2023-04-15T17:41:31.423Z,97723.41
2023-04-15T17:43:59.010Z,97729.75
2023-04-15T17:46:26.895Z,97742.06
2023-04-15T17:48:55.669Z,97743.69
2023-04-15T17:51:22.976Z,97743.69
2023-04-15T17:53:51.124Z,97744.50
2023-04-15T17:56:18.391Z,97750.66
2023-04-15T17:58:45.994Z,97746.94
2023-04-15T18:01:13.517Z,97742.44
2023-04-15T18:03:41.279Z,97743.03
2023-04-15T18:06:08.745Z,97749.41
2023-04-15T18:08:36.606Z,97755.53
2023-04-15T18:11:04.632Z,97757.19
2023-04-15T18:13:32.436Z,97760.06
2023-04-15T18:15:59.688Z,97778.53
2023-04-15T18:18:28.308Z,97788.34
2023-04-15T18:20:55.603Z,97802.50
2023-04-15T18:23:23.075Z,97805.16
2023-04-15T18:25:50.815Z,97804.13
2023-04-15T18:28:18.593Z,97814.78
2023-04-15T18:30:46.018Z,97820.13
2023-04-15T18:33:13.714Z,97817.44
2023-04-15T18:35:42.925Z,97821.97
2023-04-15T18:38:10.915Z,97817.44
2023-04-15T18:40:39.646Z,97814.78
2023-04-15T18:43:09.350Z,97813.78
2023-04-15T18:45:36.897Z,97819.91
2023-04-15T18:48:15.751Z,97808.44
2023-04-15T18:50:48.338Z,97817.00
2023-04-15T18:53:16.338Z,97810.06
2023-04-15T18:55:43.611Z,97814.56
2023-04-15T18:58:11.247Z,97819.09
2023-04-15T19:00:41.612Z,97825.25
2023-04-15T19:03:10.514Z,97826.03
2023-04-15T19:05:38.025Z,97825.25
2023-04-15T19:08:05.832Z,97833.00
2023-04-15T19:10:34.507Z,97833.00
2023-04-15T19:13:04.328Z,97827.66
2023-04-15T19:15:32.075Z,97820.72
2023-04-15T19:17:59.941Z,97831.16
2023-04-15T19:20:27.437Z,97839.97
2023-04-15T19:22:55.458Z,97834.66
2023-04-15T19:25:22.955Z,97838.31
2023-04-15T19:27:50.779Z,97838.31
2023-04-15T19:30:18.343Z,97839.97
2023-04-15T19:32:45.933Z,97839.97
2023-04-15T19:35:13.419Z,97843.66
2023-04-15T19:37:41.465Z,97845.31
2023-04-15T19:40:09.572Z,97843.66
2023-04-15T19:42:37.454Z,97841.84
2023-04-15T19:45:05.087Z,97839.97
2023-04-15T19:47:33.717Z,97845.31
2023-04-15T19:50:01.136Z,97853.91
2023-04-15T19:52:28.724Z,97851.25
2023-04-15T19:54:56.114Z,97857.59
2023-04-15T19:57:23.679Z,97848.56
2023-04-15T19:59:50.971Z,97849.59
2023-04-15T20:02:18.581Z,97852.25
2023-04-15T20:04:46.106Z,97853.09
2023-04-15T20:07:13.867Z,97863.75
2023-04-15T20:09:43.708Z,97862.09
2023-04-15T20:12:51.184Z,97857.59
2023-04-15T20:14:58.729Z,97853.91
2023-04-15T20:17:26.369Z,97859.25
2023-04-15T20:19:53.606Z,97859.25
2023-04-15T20:22:21.144Z,97864.56
2023-04-15T20:24:48.451Z,97861.91
2023-04-15T20:27:16.120Z,97860.84
2023-04-15T20:29:43.403Z,97874.41
2023-04-15T20:32:11.641Z,97874.41
2023-04-15T20:34:40.510Z,97884.03
2023-04-15T20:37:08.051Z,97878.91
2023-04-15T20:39:35.458Z,97884.25
2023-04-15T20:42:03.007Z,97885.91
2023-04-15T20:44:30.450Z,97881.56
2023-04-15T20:46:57.999Z,97878.91
2023-04-15T20:49:25.323Z,97881.56
2023-04-15T20:51:52.881Z,97882.41
2023-04-15T20:54:20.461Z,97878.91
2023-04-15T20:56:48.081Z,97884.25
2023-04-15T20:59:15.502Z,97885.28
2023-04-15T21:01:43.314Z,97893.28
2023-04-15T21:04:10.682Z,97892.47
2023-04-15T21:06:38.557Z,97898.63
2023-04-15T21:09:08.453Z,97899.44
2023-04-15T21:14:08.003Z,97907.63
2023-04-15T21:16:35.722Z,97905.81
2023-04-15T21:19:03.234Z,97912.75
2023-04-15T21:21:31.899Z,97909.28
2023-04-15T21:23:59.721Z,97911.94
2023-04-15T21:26:27.429Z,97917.28
2023-04-15T21:28:54.715Z,97922.63
2023-04-15T21:31:23.022Z,97924.47
2023-04-15T21:33:50.445Z,97924.47
2023-04-15T21:36:18.012Z,97922.81
2023-04-15T21:38:45.323Z,97928.97
2023-04-15T21:41:13.449Z,97930.00
2023-04-15T21:43:40.670Z,97928.97
2023-04-15T21:46:23.258Z,97932.66
2023-04-15T21:48:55.596Z,97938.00
2023-04-15T21:51:23.180Z,97944.16
2023-04-15T21:53:50.777Z,97948.66
2023-04-15T21:56:20.561Z,97948.66
2023-04-15T21:58:47.789Z,97948.66
2023-04-15T22:01:16.950Z,97951.34
2023-04-15T22:03:44.551Z,97966.28
2023-04-15T22:06:13.677Z,97959.31
2023-04-15T22:08:55.363Z,97964.66
2023-04-15T22:11:30.782Z,97971.84
2023-04-15T22:13:58.847Z,97973.47
2023-04-15T22:16:26.965Z,97983.31
2023-04-15T22:18:55.323Z,97985.97
2023-04-15T22:21:23.530Z,97985.19
2023-04-15T22:23:51.569Z,97984.38
2023-04-15T22:26:20.284Z,97987.03
2023-04-15T22:28:48.035Z,97987.03
2023-04-15T22:31:15.850Z,97995.03
2023-04-15T22:33:43.204Z,97989.69
2023-04-15T22:36:10.752Z,97992.38
2023-04-15T22:38:38.170Z,97998.72
2023-04-15T22:41:06.006Z,98005.69
2023-04-15T22:43:33.296Z,98014.69
2023-04-15T22:46:01.179Z,98002.41
2023-04-15T22:48:28.543Z,98013.09
2023-04-15T22:50:56.146Z,98020.03
2023-04-15T22:53:23.520Z,98023.75
2023-04-15T22:55:51.680Z,98031.75
2023-04-15T22:58:18.967Z,98026.41
2023-04-15T23:00:46.552Z,98029.28
2023-04-15T23:03:13.961Z,98027.41
2023-04-15T23:05:42.440Z,98041.56
2023-04-15T23:08:09.808Z,98034.41
2023-04-15T23:10:40.112Z,98044.22
2023-04-15T23:13:07.398Z,98043.22
2023-04-15T23:15:34.984Z,98043.41
2023-04-15T23:18:02.444Z,98043.41
2023-04-15T23:20:29.958Z,98037.28
2023-04-15T23:22:57.205Z,98041.78
2023-04-15T23:25:24.810Z,98048.75
2023-04-15T23:27:52.072Z,98047.94
2023-04-15T23:30:19.596Z,98053.28
2023-04-15T23:32:47.065Z,98051.63
2023-04-15T23:35:14.663Z,98053.47
2023-04-15T23:37:41.930Z,98057.78
2023-04-15T23:40:09.984Z,98056.13
2023-04-15T23:42:37.200Z,98057.78
2023-04-15T23:45:05.372Z,98060.66
2023-04-15T23:47:32.719Z,98060.66
2023-04-15T23:50:00.422Z,98061.47
2023-04-15T23:52:28.239Z,98061.47
2023-04-15T23:54:55.782Z,98054.50
2023-04-15T23:57:23.197Z,98064.34
2023-04-15T23:59:50.714Z,98059.00
